Terminal Aerodrome Forecast
Issued by NWS Wakefield, VA

Home | Current Version | Previous Version | Text Only | Print | Product List | Glossary On
Versions: 1 2 3 4 5 6 7 8 9 10 11 12 13
000
FTUS41 KAKQ 040542
TAFORF
TAF
KORF 040542Z 0406/0506 35011KT P6SM SKC
     FM042100 VRB03KT P6SM OVC100
     FM050000 09004KT P6SM -RA OVC070
     FM050300 15005KT P6SM -RA OVC040=

USA.gov is the U.S. government's official web portal to all federal, state and local government web resources and services.